Overview Statistics Trail Chart Weather Telemetry Raw packets
 

This is the latest recevied weather packets stored in our database for station/object M0HPP-13. If no packets are shown the sender has not sent any weather packets the latest 10 day(s).

<< 40 41 42 43 44 45 46 >>
Time Temp. Humidity Pressure Rain* Wind** Luminosity Snow
1788007086 14.44° C 89% 1003.5 hPa 0 mm - 37 W/m² -
1788006488 15° C 86% 1003.4 hPa 0 mm - 48 W/m² -
1788005886 15.56° C 84% 1003.2 hPa 0 mm - 74 W/m² -
1788005286 15.56° C 84% 1003.2 hPa 0 mm - 102 W/m² -
1788004686 16.11° C 82% 1003.3 hPa 0 mm - 141 W/m² -
1788004086 16.11° C 84% 1003.2 hPa 0 mm - 147 W/m² -
1788003486 15° C 88% 1003.2 hPa 0 mm - 285 W/m² -
1788002886 15.56° C 87% 1003.3 hPa 0 mm - 166 W/m² -
1788002286 15.56° C 87% 1003.2 hPa 0 mm - 208 W/m² -
1788001686 15° C 89% 1003.3 hPa 0 mm - 87 W/m² -
1788001086 16.11° C 84% 1003.2 hPa 0 mm - 139 W/m² -
1788000486 16.11° C 85% 1003.2 hPa 0 mm - 246 W/m² -
1787999886 15.56° C 87% 1003.2 hPa 0 mm - 208 W/m² -
1787999286 15.56° C 88% 1003.1 hPa 0 mm - 136 W/m² -
1787998686 15° C 89% 1003.3 hPa 0 mm - 214 W/m² -
1787998086 14.44° C 92% 1003.2 hPa 0 mm - 214 W/m² -
1787997486 13.89° C 97% 1003.1 hPa 0 mm - 186 W/m² -
1787996886 13.33° C 97% 1003.1 hPa 0 mm - 126 W/m² -
1787996286 13.33° C 96% 1003.1 hPa 0 mm - 62 W/m² -
1787995686 13.89° C 92% 1003 hPa 0 mm - 85 W/m² -
1787995086 13.89° C 92% 1002.9 hPa 0 mm - 91 W/m² -
1787994486 13.89° C 92% 1002.9 hPa 0 mm - 75 W/m² -
1787993886 13.89° C 92% 1002.8 hPa 0 mm - 86 W/m² -
1787993286 13.89° C 94% 1002.8 hPa 0 mm - 96 W/m² -
1787992686 13.33° C 96% 1002.8 hPa 0 mm - 99 W/m² -

* Rain latest hour (hover to see other rain measurements)
** Current wind speed in m/s (hover to see current wind gust speed)